This is the latest recevied weather packets stored in our database for station/object AC5CM. If no packets are shown the sender has not sent any weather packets the latest 10 day(s).
| Time | Temp. | Humidity | Pressure | Rain* | Wind** | Luminosity | Snow |
|---|---|---|---|---|---|---|---|
| 1777873269 | 14.44° C | 83% | 1019.2 hPa | 0 mm | - | - | - |
| 1777872966 | 14.44° C | 82% | 1019.1 hPa | 0 mm | - | - | - |
| 1777872663 | 14.44° C | 82% | 1019.2 hPa | 0 mm | - | - | - |
| 1777872360 | 14.44° C | 83% | 1019.3 hPa | 0 mm | - | - | - |
| 1777872058 | 14.44° C | 82% | 1019.5 hPa | 0 mm | - | - | - |
| 1777871754 | 14.44° C | 82% | 1019.4 hPa | 0 mm | - | - | - |
| 1777871451 | 14.44° C | 82% | 1019.5 hPa | 0 mm | - | - | - |
| 1777871148 | 14.44° C | 82% | 1019.7 hPa | 0 mm | - | - | - |
| 1777870845 | 14.44° C | 81% | 1019.4 hPa | 0 mm | - | - | - |
| 1777870542 | 14.44° C | 82% | 1019.4 hPa | 0 mm | - | - | - |
| 1777870237 | 13.89° C | 84% | 1019.3 hPa | 0 mm | - | - | - |
| 1777869935 | 13.89° C | 82% | 1019.7 hPa | 0 mm | - | - | - |
| 1777869632 | 14.44° C | 82% | 1019.3 hPa | 0 mm | - | - | - |
| 1777869329 | 14.44° C | 81% | 1019.6 hPa | 0 mm | - | - | - |
| 1777869026 | 14.44° C | 80% | 1019.6 hPa | 0 mm | - | - | - |
| 1777868723 | 14.44° C | 80% | 1019.8 hPa | 0 mm | - | - | - |
| 1777868420 | 15° C | 79% | 1019.6 hPa | 0 mm | - | - | - |
| 1777868116 | 15° C | 79% | 1019.9 hPa | 0 mm | - | - | - |
| 1777867812 | 15° C | 77% | 1019.6 hPa | 0 mm | - | - | - |
| 1777867510 | 15.56° C | 77% | 1019.7 hPa | 0 mm | - | - | - |
| 1777867206 | 15.56° C | 75% | 1019.5 hPa | 0 mm | - | - | - |
| 1777865692 | 16.67° C | 70% | 1019.6 hPa | 0 mm | - | - | - |
| 1777864176 | 17.78° C | 67% | 1019.4 hPa | 0 mm | - | - | - |
| 1777845996 | 25.56° C | 40% | 1019.8 hPa | 0 mm | - | - | - |
| 1777845390 | 25° C | 41% | 1019.9 hPa | 0 mm | - | - | - |
* Rain latest hour (hover to see other rain measurements)
** Current wind speed in m/s (hover to see current wind gust speed)